Time;durP1;ratioP1;P1;durP2;ratioP2;P2;SDS_P1;SDS_P2;PMS_P1;PMS_P2;Temp;Humidity;BMP_temperature;BMP_pressure;BME280_temperature;BME280_humidity;BME280_pressure;Samples;Min_cycle;Max_cycle;Signal;HPM_P1;HPM_P2
2021/05/20 00:01:37;;;;;;;62.97;32.55;;;;;;;;;;4434921;32;20263;-68
2021/05/20 00:04:02;;;;;;;67.72;34.58;;;;;;;;;;4434637;32;20614;-69
2021/05/20 00:06:28;;;;;;;54.33;30.17;;;;;;;;;;4436549;32;20168;-69
2021/05/20 00:08:53;;;;;;;54.38;29.55;;;;;;;;;;4429982;32;20316;-70
2021/05/20 00:11:18;;;;;;;55.28;30.85;;;;;;;;;;4420046;32;20594;-68
2021/05/20 00:13:43;;;;;;;65.90;32.47;;;;;;;;;;4432359;32;20299;-68
2021/05/20 00:16:08;;;;;;;55.63;30.70;;;;;;;;;;4435288;32;20129;-69
2021/05/20 00:18:33;;;;;;;60.13;31.23;;;;;;;;;;4432784;32;20767;-69
2021/05/20 00:20:59;;;;;;;57.83;30.13;;;;;;;;;;4420713;32;20256;-68
2021/05/20 00:23:24;;;;;;;56.07;31.97;;;;;;;;;;4420473;32;20576;-68
2021/05/20 00:25:49;;;;;;;71.70;36.70;;;;;;;;;;4406907;32;20158;-70
2021/05/20 00:28:14;;;;;;;71.47;37.05;;;;;;;;;;4420679;32;20180;-67
2021/05/20 00:30:40;;;;;;;56.20;30.85;;;;;;;;;;4420393;32;20134;-68
2021/05/20 00:33:05;;;;;;;60.50;31.75;;;;;;;;;;4406927;32;20576;-70
2021/05/20 00:35:30;;;;;;;57.03;32.73;;;;;;;;;;4405398;32;20158;-68
2021/05/20 00:37:55;;;;;;;66.40;34.37;;;;;;;;;;4419862;32;20229;-70
2021/05/20 00:40:20;;;;;;;64.40;35.22;;;;;;;;;;4420132;32;20165;-68
2021/05/20 00:42:46;;;;;;;67.77;33.90;;;;;;;;;;4418891;32;20518;-69
2021/05/20 00:45:11;;;;;;;79.40;39.40;;;;;;;;;;4418265;32;20180;-68
2021/05/20 00:47:36;;;;;;;88.67;41.07;;;;;;;;;;4421995;32;20244;-67
2021/05/20 00:50:04;;;;;;;94.67;43.90;;;;;;;;;;4435210;32;20553;-67
2021/05/20 00:52:29;;;;;;;81.33;39.97;;;;;;;;;;4434346;32;20137;-68
2021/05/20 00:54:56;;;;;;;72.07;38.40;;;;;;;;;;4419225;32;20264;-68
2021/05/20 00:57:21;;;;;;;66.73;36.03;;;;;;;;;;4434841;32;20134;-68
2021/05/20 00:59:50;;;;;;;81.50;43.13;;;;;;;;;;4433440;32;20165;-69
2021/05/20 01:02:15;;;;;;;88.65;44.47;;;;;;;;;;4435059;32;20145;-68
2021/05/20 01:04:41;;;;;;;109.47;51.57;;;;;;;;;;4434074;32;20183;-68
2021/05/20 01:07:06;;;;;;;72.68;40.95;;;;;;;;;;4433217;32;20517;-68
2021/05/20 01:09:33;;;;;;;98.57;47.33;;;;;;;;;;4419097;32;20241;-68
2021/05/20 01:11:58;;;;;;;94.13;46.63;;;;;;;;;;4419082;32;20150;-68
2021/05/20 01:14:23;;;;;;;95.40;47.20;;;;;;;;;;4419717;32;20161;-68
2021/05/20 01:16:48;;;;;;;79.27;43.37;;;;;;;;;;4417874;32;20173;-69
2021/05/20 01:19:13;;;;;;;83.80;45.07;;;;;;;;;;4417989;32;20278;-69
2021/05/20 01:21:40;;;;;;;87.10;45.63;;;;;;;;;;4419155;32;20126;-67
2021/05/20 01:24:05;;;;;;;86.80;49.27;;;;;;;;;;4419560;32;20535;-69
2021/05/20 01:26:31;;;;;;;78.00;44.27;;;;;;;;;;4417509;32;20160;-68
2021/05/20 01:28:56;;;;;;;81.10;44.70;;;;;;;;;;4418458;32;20240;-68
2021/05/20 01:31:21;;;;;;;80.70;44.00;;;;;;;;;;4434452;32;20260;-68
2021/05/20 01:33:46;;;;;;;106.37;53.80;;;;;;;;;;4433978;32;20557;-68
2021/05/20 01:36:12;;;;;;;101.43;52.17;;;;;;;;;;4422756;32;20283;-68
2021/05/20 01:41:03;;;;;;;83.60;47.28;;;;;;;;;;4418756;32;20160;-68
2021/05/20 01:43:29;;;;;;;84.13;46.67;;;;;;;;;;4417814;32;20268;-69
2021/05/20 01:45:57;;;;;;;81.80;44.63;;;;;;;;;;4419585;32;20142;-69
2021/05/20 01:48:23;;;;;;;109.20;55.37;;;;;;;;;;4403419;32;20244;-68
2021/05/20 01:50:49;;;;;;;92.77;48.27;;;;;;;;;;4416900;32;20150;-67
2021/05/20 01:53:14;;;;;;;98.47;51.73;;;;;;;;;;4418520;32;20245;-67
2021/05/20 01:55:39;;;;;;;103.83;52.43;;;;;;;;;;4417248;32;20166;-68
2021/05/20 01:58:05;;;;;;;107.30;51.97;;;;;;;;;;4419082;32;20237;-68
2021/05/20 02:00:30;;;;;;;99.40;52.67;;;;;;;;;;4419575;32;20133;-69
2021/05/20 02:02:55;;;;;;;93.40;48.07;;;;;;;;;;4429577;32;20218;-67
2021/05/20 02:05:20;;;;;;;94.60;51.37;;;;;;;;;;4427676;32;20141;-69
2021/05/20 02:07:45;;;;;;;83.40;47.92;;;;;;;;;;4418447;32;20781;-67
2021/05/20 02:10:11;;;;;;;131.53;65.00;;;;;;;;;;4418482;32;20153;-71
2021/05/20 02:12:36;;;;;;;111.90;54.67;;;;;;;;;;4418002;32;20539;-68
2021/05/20 02:15:01;;;;;;;124.33;62.40;;;;;;;;;;4417279;32;20126;-69
2021/05/20 02:17:26;;;;;;;94.30;51.37;;;;;;;;;;4403729;32;20251;-69
2021/05/20 02:19:51;;;;;;;100.20;53.53;;;;;;;;;;4418632;32;20142;-69
2021/05/20 02:22:17;;;;;;;89.40;50.40;;;;;;;;;;4417798;32;20134;-69
2021/05/20 02:24:42;;;;;;;111.40;55.93;;;;;;;;;;4403122;32;20178;-69
2021/05/20 02:27:07;;;;;;;125.07;62.23;;;;;;;;;;4417200;32;20167;-69
2021/05/20 02:29:32;;;;;;;142.53;68.83;;;;;;;;;;4418029;32;20137;-69
2021/05/20 02:31:58;;;;;;;138.15;67.05;;;;;;;;;;4419001;32;20160;-69
2021/05/20 02:34:23;;;;;;;138.97;67.10;;;;;;;;;;4419094;32;20275;-69
2021/05/20 02:36:48;;;;;;;136.17;66.80;;;;;;;;;;4416881;32;20217;-68
2021/05/20 02:39:13;;;;;;;143.30;69.13;;;;;;;;;;4417689;32;20248;-68
2021/05/20 02:41:38;;;;;;;149.63;71.20;;;;;;;;;;4416759;32;20213;-67
2021/05/20 02:44:04;;;;;;;148.23;68.83;;;;;;;;;;4404539;32;20258;-68
2021/05/20 02:46:29;;;;;;;150.67;69.20;;;;;;;;;;4418139;32;20150;-69
2021/05/20 02:48:54;;;;;;;161.30;75.10;;;;;;;;;;4418185;32;20172;-67
2021/05/20 02:51:22;;;;;;;159.63;67.13;;;;;;;;;;4418509;32;20549;-68
2021/05/20 02:53:47;;;;;;;177.33;74.57;;;;;;;;;;4416601;32;20277;-69
2021/05/20 02:56:12;;;;;;;150.87;64.80;;;;;;;;;;4420844;32;20723;-69
2021/05/20 02:58:37;;;;;;;187.00;76.87;;;;;;;;;;4435576;32;20133;-69
2021/05/20 03:01:03;;;;;;;191.87;76.93;;;;;;;;;;4421924;32;20689;-69
2021/05/20 03:03:28;;;;;;;188.20;74.90;;;;;;;;;;4435362;32;20172;-69
2021/05/20 03:05:54;;;;;;;192.33;77.30;;;;;;;;;;4420894;32;20338;-69
2021/05/20 03:08:19;;;;;;;188.47;73.57;;;;;;;;;;4436651;32;20267;-68
2021/05/20 03:10:44;;;;;;;181.27;74.67;;;;;;;;;;4436471;32;20593;-69
2021/05/20 03:13:09;;;;;;;217.83;83.97;;;;;;;;;;4437135;32;20133;-68
2021/05/20 03:15:35;;;;;;;164.83;71.30;;;;;;;;;;4436964;32;20186;-68
2021/05/20 03:18:00;;;;;;;157.00;70.43;;;;;;;;;;4436280;32;20156;-68
2021/05/20 03:20:25;;;;;;;156.40;65.47;;;;;;;;;;4422111;32;20250;-68
2021/05/20 03:22:51;;;;;;;151.17;58.60;;;;;;;;;;4436378;32;20149;-68
2021/05/20 03:25:17;;;;;;;312.77;61.33;;;;;;;;;;4434358;32;20450;-68
2021/05/20 03:27:42;;;;;;;263.80;57.67;;;;;;;;;;4434245;32;20129;-68
2021/05/20 03:30:08;;;;;;;253.93;58.20;;;;;;;;;;4435976;32;20216;-68
2021/05/20 03:32:33;;;;;;;250.70;58.67;;;;;;;;;;4421714;32;20196;-69
2021/05/20 03:34:58;;;;;;;226.87;57.77;;;;;;;;;;4434902;32;20138;-69
2021/05/20 03:37:23;;;;;;;234.07;61.63;;;;;;;;;;4434699;32;20137;-68
2021/05/20 03:39:48;;;;;;;221.00;61.73;;;;;;;;;;4435634;32;20507;-67
2021/05/20 03:42:14;;;;;;;189.43;58.20;;;;;;;;;;4420419;32;20178;-68
2021/05/20 03:44:39;;;;;;;246.50;55.47;;;;;;;;;;4435745;32;20256;-69
2021/05/20 03:47:04;;;;;;;253.77;63.07;;;;;;;;;;4436432;32;20133;-69
2021/05/20 03:49:29;;;;;;;274.90;75.13;;;;;;;;;;4436098;32;20261;-69
2021/05/20 03:51:54;;;;;;;185.27;63.30;;;;;;;;;;4436126;32;20134;-69
2021/05/20 03:54:20;;;;;;;216.90;63.40;;;;;;;;;;4434976;32;20154;-69
2021/05/20 03:56:45;;;;;;;217.90;67.53;;;;;;;;;;4420722;32;20300;-69
2021/05/20 03:59:10;;;;;;;254.50;62.00;;;;;;;;;;4420158;32;20138;-69
2021/05/20 04:01:39;;;;;;;213.00;59.27;;;;;;;;;;4421358;32;20599;-69
2021/05/20 04:04:04;;;;;;;280.87;68.80;;;;;;;;;;4418421;32;20206;-68
2021/05/20 04:06:29;;;;;;;192.87;65.00;;;;;;;;;;4422547;32;20592;-69
2021/05/20 04:08:54;;;;;;;388.30;74.63;;;;;;;;;;4404894;32;20166;-67
2021/05/20 04:11:19;;;;;;;396.30;71.37;;;;;;;;;;4419428;32;20313;-68
2021/05/20 04:13:45;;;;;;;317.80;71.13;;;;;;;;;;4406661;32;20169;-68
2021/05/20 04:16:14;;;;;;;347.70;71.07;;;;;;;;;;4420387;32;20153;-68
2021/05/20 04:18:39;;;;;;;277.00;68.93;;;;;;;;;;4420352;32;20225;-68
2021/05/20 04:21:05;;;;;;;217.33;63.93;;;;;;;;;;4404685;32;20621;-69
2021/05/20 04:23:30;;;;;;;223.73;67.20;;;;;;;;;;4419632;32;20138;-69
2021/05/20 04:25:55;;;;;;;232.77;71.03;;;;;;;;;;4406201;32;20339;-68
2021/05/20 04:28:21;;;;;;;186.57;62.23;;;;;;;;;;4406715;32;20478;-68
2021/05/20 04:30:46;;;;;;;205.33;64.37;;;;;;;;;;4419415;32;20188;-68
2021/05/20 04:33:12;;;;;;;279.23;75.00;;;;;;;;;;4419006;32;20435;-69
2021/05/20 04:35:37;;;;;;;309.60;78.07;;;;;;;;;;4431760;32;20181;-68
2021/05/20 04:38:03;;;;;;;209.63;68.30;;;;;;;;;;4435060;32;20249;-68
2021/05/20 04:40:29;;;;;;;210.93;69.53;;;;;;;;;;4434251;32;20134;-68
2021/05/20 04:42:54;;;;;;;210.20;69.63;;;;;;;;;;4434827;32;20159;-68
2021/05/20 04:45:19;;;;;;;198.60;66.27;;;;;;;;;;4434287;32;20133;-68
2021/05/20 04:47:45;;;;;;;280.30;79.73;;;;;;;;;;4436403;32;20130;-68
2021/05/20 04:50:10;;;;;;;276.57;81.13;;;;;;;;;;4434960;32;20457;-69
2021/05/20 04:52:35;;;;;;;258.00;75.90;;;;;;;;;;4433766;32;20233;-68
2021/05/20 04:55:00;;;;;;;282.47;79.83;;;;;;;;;;4410919;32;20239;-69
2021/05/20 04:57:26;;;;;;;421.37;85.97;;;;;;;;;;4420712;32;20163;-68
2021/05/20 04:59:51;;;;;;;298.10;64.23;;;;;;;;;;4420869;32;20257;-68
2021/05/20 05:02:16;;;;;;;259.40;58.23;;;;;;;;;;4406601;32;20212;-69
2021/05/20 05:04:41;;;;;;;327.80;57.83;;;;;;;;;;4426765;32;20533;-69
2021/05/20 05:07:06;;;;;;;390.50;67.30;;;;;;;;;;4435567;32;20264;-68
2021/05/20 05:09:32;;;;;;;361.03;61.10;;;;;;;;;;4422346;32;20153;-68
2021/05/20 05:11:57;;;;;;;320.33;60.03;;;;;;;;;;4407177;32;20517;-68
2021/05/20 05:14:22;;;;;;;373.43;68.63;;;;;;;;;;4425632;32;20149;-68
2021/05/20 05:16:47;;;;;;;230.17;59.83;;;;;;;;;;4433957;32;20590;-69
2021/05/20 05:19:12;;;;;;;232.23;63.20;;;;;;;;;;4433840;32;20160;-68
2021/05/20 05:21:38;;;;;;;241.37;65.73;;;;;;;;;;4435063;32;20141;-67
2021/05/20 05:24:03;;;;;;;189.27;60.87;;;;;;;;;;4419611;32;20550;-69
2021/05/20 05:26:29;;;;;;;150.47;54.97;;;;;;;;;;4418957;32;20165;-68
2021/05/20 05:28:54;;;;;;;166.73;57.63;;;;;;;;;;4434649;32;20184;-69
2021/05/20 05:31:23;;;;;;;126.40;52.97;;;;;;;;;;4435067;32;20368;-69
2021/05/20 05:33:48;;;;;;;139.60;53.63;;;;;;;;;;4432815;32;20153;-69
2021/05/20 05:36:13;;;;;;;152.93;55.53;;;;;;;;;;4435240;32;20474;-67
2021/05/20 05:38:38;;;;;;;190.70;55.70;;;;;;;;;;4428256;32;20549;-68
2021/05/20 05:41:03;;;;;;;123.20;49.60;;;;;;;;;;4403784;32;20269;-68
2021/05/20 05:43:29;;;;;;;180.60;51.53;;;;;;;;;;4419713;32;20145;-68
2021/05/20 05:45:54;;;;;;;372.47;67.63;;;;;;;;;;4419592;32;20137;-69
2021/05/20 05:48:19;;;;;;;232.93;54.35;;;;;;;;;;4417754;32;20206;-68
2021/05/20 05:50:45;;;;;;;168.60;48.57;;;;;;;;;;4418128;32;20295;-69
2021/05/20 05:53:11;;;;;;;206.33;47.63;;;;;;;;;;4419626;32;20521;-68
2021/05/20 05:55:36;;;;;;;218.90;46.27;;;;;;;;;;4417430;32;20161;-68
2021/05/20 05:58:01;;;;;;;214.13;48.67;;;;;;;;;;4418768;32;20168;-68
2021/05/20 06:00:26;;;;;;;302.80;52.57;;;;;;;;;;4419856;32;20184;-68
2021/05/20 06:02:51;;;;;;;304.13;58.53;;;;;;;;;;4419283;32;20519;-68
2021/05/20 06:05:18;;;;;;;146.90;45.93;;;;;;;;;;4406969;32;20213;-68
2021/05/20 06:07:44;;;;;;;207.03;51.90;;;;;;;;;;4413801;32;20196;-68
2021/05/20 06:10:09;;;;;;;272.33;52.70;;;;;;;;;;4428095;32;20593;-69
2021/05/20 06:12:34;;;;;;;199.57;47.27;;;;;;;;;;4422088;32;20138;-68
2021/05/20 06:15:00;;;;;;;355.37;51.33;;;;;;;;;;4434764;32;20237;-68
2021/05/20 06:17:25;;;;;;;216.40;50.83;;;;;;;;;;4432124;32;20236;-67
2021/05/20 06:19:50;;;;;;;171.30;47.80;;;;;;;;;;4412771;32;20165;-68
2021/05/20 06:22:15;;;;;;;236.90;49.73;;;;;;;;;;4412933;32;20192;-69
2021/05/20 06:24:41;;;;;;;197.53;48.73;;;;;;;;;;4431455;32;20142;-68
2021/05/20 06:27:06;;;;;;;222.60;50.33;;;;;;;;;;4418639;32;20517;-68
2021/05/20 06:29:31;;;;;;;188.13;52.20;;;;;;;;;;4433864;32;20167;-68
2021/05/20 06:31:57;;;;;;;187.57;51.73;;;;;;;;;;4433327;32;20168;-69
2021/05/20 06:34:23;;;;;;;154.97;50.53;;;;;;;;;;4432725;32;20149;-68
2021/05/20 06:36:49;;;;;;;188.50;49.75;;;;;;;;;;4434410;32;20229;-68
2021/05/20 06:39:14;;;;;;;184.30;51.35;;;;;;;;;;4431709;32;20149;-69
2021/05/20 06:41:39;;;;;;;210.60;53.17;;;;;;;;;;4434441;32;20189;-69
2021/05/20 06:44:04;;;;;;;171.85;50.80;;;;;;;;;;4412218;32;20169;-69
2021/05/20 06:46:30;;;;;;;167.98;49.20;;;;;;;;;;4427227;32;20157;-68
2021/05/20 06:48:55;;;;;;;155.55;53.87;;;;;;;;;;4421744;32;20545;-68
2021/05/20 06:51:21;;;;;;;148.77;51.97;;;;;;;;;;4431714;32;20184;-68
2021/05/20 06:53:48;;;;;;;157.48;60.28;;;;;;;;;;4425194;32;20622;-68
2021/05/20 06:56:17;;;;;;;144.20;57.10;;;;;;;;;;4423878;32;20228;-68
2021/05/20 07:01:26;;;;;;;141.68;58.33;;;;;;;;;;4430611;32;20228;-68
2021/05/20 07:03:51;;;;;;;120.40;49.63;;;;;;;;;;4432237;32;20574;-68
2021/05/20 07:06:17;;;;;;;113.65;52.00;;;;;;;;;;4436824;32;20343;-68
2021/05/20 07:08:42;;;;;;;116.65;50.12;;;;;;;;;;4415968;32;20253;-69
2021/05/20 07:11:07;;;;;;;109.72;50.75;;;;;;;;;;4422321;32;20138;-69
2021/05/20 07:13:33;;;;;;;111.95;56.00;;;;;;;;;;4423127;32;20249;-69
2021/05/20 07:15:58;;;;;;;102.20;49.03;;;;;;;;;;4426972;32;20209;-67
2021/05/20 07:18:23;;;;;;;107.37;53.55;;;;;;;;;;4418221;32;20220;-68
2021/05/20 07:20:48;;;;;;;112.85;54.63;;;;;;;;;;4418875;32;20569;-67
2021/05/20 07:23:14;;;;;;;96.75;49.03;;;;;;;;;;4417282;32;20476;-68
2021/05/20 07:25:40;;;;;;;93.32;48.33;;;;;;;;;;4431348;32;20175;-68
2021/05/20 07:28:06;;;;;;;73.72;42.05;;;;;;;;;;4430542;32;20269;-68
2021/05/20 07:30:31;;;;;;;68.60;38.97;;;;;;;;;;4430634;32;20167;-67
2021/05/20 07:32:56;;;;;;;71.97;39.63;;;;;;;;;;4432130;32;20545;-67
2021/05/20 07:35:22;;;;;;;68.75;39.13;;;;;;;;;;4414718;32;20609;-67
2021/05/20 07:37:47;;;;;;;66.43;39.15;;;;;;;;;;4428482;32;20218;-67
2021/05/20 07:40:13;;;;;;;59.55;36.85;;;;;;;;;;4431783;32;20283;-67
2021/05/20 07:42:39;;;;;;;59.55;37.85;;;;;;;;;;4417373;32;20287;-67
2021/05/20 07:45:05;;;;;;;53.40;35.85;;;;;;;;;;4432966;32;20141;-67
2021/05/20 07:47:30;;;;;;;50.50;33.03;;;;;;;;;;4444078;32;20214;-67
2021/05/20 07:49:55;;;;;;;43.65;28.20;;;;;;;;;;4446416;32;20168;-67
2021/05/20 07:52:21;;;;;;;39.47;26.52;;;;;;;;;;4450134;32;20137;-68
2021/05/20 07:54:46;;;;;;;39.08;26.17;;;;;;;;;;4447954;32;20156;-67
2021/05/20 07:57:11;;;;;;;34.47;23.77;;;;;;;;;;4434084;32;20164;-68
2021/05/20 07:59:37;;;;;;;29.05;19.83;;;;;;;;;;4433277;32;20169;-68
2021/05/20 08:02:18;;;;;;;29.12;19.92;;;;;;;;;;4434430;32;20157;-67
2021/05/20 08:04:46;;;;;;;26.40;16.40;;;;;;;;;;4435175;32;20430;-69
2021/05/20 08:07:25;;;;;;;30.10;17.48;;;;;;;;;;4434499;32;20141;-68
2021/05/20 08:12:34;;;;;;;31.95;20.67;;;;;;;;;;4419754;32;20511;-67
2021/05/20 08:14:59;;;;;;;31.50;20.25;;;;;;;;;;4405167;32;20158;-67
2021/05/20 08:17:25;;;;;;;24.12;16.87;;;;;;;;;;4426404;32;20214;-67
2021/05/20 08:19:50;;;;;;;27.83;18.08;;;;;;;;;;4422337;32;20205;-68
2021/05/20 08:22:15;;;;;;;27.55;18.80;;;;;;;;;;4423269;32;20383;-68
2021/05/20 08:24:40;;;;;;;21.45;14.07;;;;;;;;;;4425389;32;20138;-67
2021/05/20 08:27:05;;;;;;;19.77;14.35;;;;;;;;;;4427806;32;20546;-67
2021/05/20 08:29:32;;;;;;;21.12;12.75;;;;;;;;;;4417254;32;20283;-68
2021/05/20 08:31:57;;;;;;;18.65;13.25;;;;;;;;;;4427789;32;20196;-67
2021/05/20 08:34:22;;;;;;;13.98;10.25;;;;;;;;;;4424659;32;20144;-68
2021/05/20 08:36:47;;;;;;;14.45;8.35;;;;;;;;;;4432471;32;20303;-69
2021/05/20 08:39:12;;;;;;;16.20;9.63;;;;;;;;;;4429236;32;20557;-68
2021/05/20 08:41:38;;;;;;;14.70;9.82;;;;;;;;;;4409182;32;20264;-68
2021/05/20 08:44:11;;;;;;;12.35;8.95;;;;;;;;;;4425432;32;20678;-69
2021/05/20 08:46:36;;;;;;;14.00;8.00;;;;;;;;;;4420385;32;20206;-68
2021/05/20 08:49:02;;;;;;;10.95;8.48;;;;;;;;;;4432765;32;20145;-67
2021/05/20 08:51:27;;;;;;;11.88;8.95;;;;;;;;;;4418939;32;20193;-67
2021/05/20 08:53:52;;;;;;;17.93;9.73;;;;;;;;;;4435613;32;20161;-69
2021/05/20 08:56:17;;;;;;;13.48;9.77;;;;;;;;;;4412564;32;20562;-68
2021/05/20 08:58:43;;;;;;;12.88;9.43;;;;;;;;;;4419730;32;20253;-69
2021/05/20 09:01:08;;;;;;;10.30;6.95;;;;;;;;;;4418820;32;20206;-67
2021/05/20 09:03:33;;;;;;;13.45;8.30;;;;;;;;;;4420109;32;20204;-67
2021/05/20 09:06:04;;;;;;;13.52;10.02;;;;;;;;;;4427788;32;20721;-69
2021/05/20 09:08:32;;;;;;;14.48;8.90;;;;;;;;;;4428140;32;20172;-68
2021/05/20 09:10:58;;;;;;;11.80;8.88;;;;;;;;;;4419466;32;20208;-69
2021/05/20 09:13:23;;;;;;;14.43;9.10;;;;;;;;;;4421726;32;20165;-69
2021/05/20 09:15:52;;;;;;;15.85;8.25;;;;;;;;;;4419251;32;20157;-70
2021/05/20 09:18:18;;;;;;;15.80;9.48;;;;;;;;;;4404647;32;20223;-68
2021/05/20 09:20:46;;;;;;;14.50;9.68;;;;;;;;;;4429187;32;20214;-69
2021/05/20 09:23:19;;;;;;;12.73;9.10;;;;;;;;;;4429374;32;20172;-68
2021/05/20 09:25:45;;;;;;;17.05;12.10;;;;;;;;;;4418937;32;20158;-69
2021/05/20 09:28:11;;;;;;;15.25;10.55;;;;;;;;;;4419584;32;20138;-69
2021/05/20 09:30:40;;;;;;;15.77;11.25;;;;;;;;;;4428303;32;20153;-69
2021/05/20 09:33:08;;;;;;;13.98;10.00;;;;;;;;;;4419183;32;20133;-69
2021/05/20 09:35:34;;;;;;;17.77;12.20;;;;;;;;;;4427723;32;20141;-68
2021/05/20 09:38:01;;;;;;;15.07;11.12;;;;;;;;;;4432350;32;20172;-69
2021/05/20 09:40:28;;;;;;;15.65;10.02;;;;;;;;;;4433904;32;20807;-68
2021/05/20 09:42:54;;;;;;;12.20;8.40;;;;;;;;;;4433858;32;20772;-68
2021/05/20 09:45:20;;;;;;;10.82;6.07;;;;;;;;;;4414930;32;20261;-68
2021/05/20 09:47:46;;;;;;;13.27;7.43;;;;;;;;;;4418375;32;20173;-67
2021/05/20 09:50:13;;;;;;;11.30;8.18;;;;;;;;;;4422131;32;20533;-68
2021/05/20 09:52:38;;;;;;;10.40;7.57;;;;;;;;;;4420246;32;20654;-69
2021/05/20 09:55:15;;;;;;;9.77;6.37;;;;;;;;;;4424422;32;20176;-68
2021/05/20 09:57:40;;;;;;;11.12;7.37;;;;;;;;;;4406588;32;20232;-69
2021/05/20 10:00:10;;;;;;;11.40;7.68;;;;;;;;;;4420714;32;20203;-68
2021/05/20 10:02:37;;;;;;;11.00;6.55;;;;;;;;;;4412660;32;20201;-67
2021/05/20 10:05:21;;;;;;;9.75;7.47;;;;;;;;;;4415768;32;20541;-69
2021/05/20 10:07:46;;;;;;;9.18;6.65;;;;;;;;;;4407242;32;20221;-69
2021/05/20 10:10:11;;;;;;;9.75;7.03;;;;;;;;;;4406729;32;20357;-69
2021/05/20 10:12:39;;;;;;;10.70;6.57;;;;;;;;;;4404481;32;20617;-69
2021/05/20 10:15:05;;;;;;;8.55;5.62;;;;;;;;;;4417809;32;20141;-69
2021/05/20 10:17:30;;;;;;;8.98;6.00;;;;;;;;;;4419320;32;20134;-68
2021/05/20 10:19:56;;;;;;;9.40;6.20;;;;;;;;;;4406455;32;20200;-68
2021/05/20 10:22:22;;;;;;;8.95;6.15;;;;;;;;;;4421065;32;20133;-69
2021/05/20 10:24:47;;;;;;;11.90;7.45;;;;;;;;;;4432945;32;20188;-70
2021/05/20 10:27:12;;;;;;;10.07;6.62;;;;;;;;;;4419767;32;20166;-69
2021/05/20 10:29:37;;;;;;;11.30;7.28;;;;;;;;;;4433897;32;20298;-67
2021/05/20 10:32:03;;;;;;;12.15;7.65;;;;;;;;;;4435074;32;20168;-68
2021/05/20 10:34:28;;;;;;;11.38;8.07;;;;;;;;;;4433535;32;20514;-68
2021/05/20 10:37:03;;;;;;;10.20;7.72;;;;;;;;;;4435370;32;20148;-68
2021/05/20 10:39:29;;;;;;;11.32;7.78;;;;;;;;;;4420137;32;20187;-69
2021/05/20 10:41:55;;;;;;;12.23;6.87;;;;;;;;;;4436363;32;20133;-69
2021/05/20 10:44:21;;;;;;;11.57;7.12;;;;;;;;;;4435672;32;20164;-69
2021/05/20 10:46:59;;;;;;;10.55;8.20;;;;;;;;;;4435808;32;20205;-68
2021/05/20 10:49:43;;;;;;;10.73;8.10;;;;;;;;;;4420091;32;20164;-69
2021/05/20 10:52:27;;;;;;;11.50;8.18;;;;;;;;;;4433190;32;20169;-68
2021/05/20 10:54:59;;;;;;;14.30;8.52;;;;;;;;;;4434472;32;20153;-68
2021/05/20 10:57:43;;;;;;;11.52;8.45;;;;;;;;;;4419797;32;20126;-69
2021/05/20 11:00:27;;;;;;;9.45;7.07;;;;;;;;;;4420117;32;20138;-69
2021/05/20 11:02:54;;;;;;;8.27;6.28;;;;;;;;;;4404124;32;20594;-67
2021/05/20 11:05:38;;;;;;;7.03;4.07;;;;;;;;;;4404887;32;20578;-69
2021/05/20 11:08:03;;;;;;;4.95;4.15;;;;;;;;;;4403789;32;20192;-68
2021/05/20 11:10:34;;;;;;;5.15;3.55;;;;;;;;;;4417256;32;20137;-68
2021/05/20 11:12:59;;;;;;;4.18;2.83;;;;;;;;;;4403606;32;20162;-68
2021/05/20 11:15:25;;;;;;;3.90;2.70;;;;;;;;;;4418918;32;20218;-67
2021/05/20 11:17:50;;;;;;;3.83;2.85;;;;;;;;;;4418915;32;20161;-67
2021/05/20 11:20:39;;;;;;;4.45;3.10;;;;;;;;;;4420873;32;20146;-69
2021/05/20 11:23:21;;;;;;;4.68;3.00;;;;;;;;;;4421681;32;20129;-68
2021/05/20 11:25:46;;;;;;;6.22;3.53;;;;;;;;;;4423364;32;20443;-68
2021/05/20 11:28:12;;;;;;;5.25;3.03;;;;;;;;;;4430873;32;20168;-69
2021/05/20 11:30:37;;;;;;;4.22;3.20;;;;;;;;;;4438492;32;20259;-69
2021/05/20 11:33:03;;;;;;;4.07;3.12;;;;;;;;;;4436502;32;20550;-68
2021/05/20 11:35:53;;;;;;;5.62;3.37;;;;;;;;;;4411613;32;20184;-69
2021/05/20 11:38:22;;;;;;;6.75;3.85;;;;;;;;;;4422980;32;20127;-69
2021/05/20 11:40:47;;;;;;;7.57;3.90;;;;;;;;;;4408416;32;20609;-67
2021/05/20 11:43:12;;;;;;;4.90;4.00;;;;;;;;;;4421571;32;20172;-68
2021/05/20 11:45:37;;;;;;;5.80;4.53;;;;;;;;;;4419687;32;20216;-68
2021/05/20 11:48:03;;;;;;;7.15;5.45;;;;;;;;;;4408057;32;20574;-67
2021/05/20 11:50:29;;;;;;;7.72;5.20;;;;;;;;;;4421883;32;20299;-67
2021/05/20 11:52:54;;;;;;;7.55;5.25;;;;;;;;;;4421425;32;20210;-67
2021/05/20 11:55:21;;;;;;;7.32;5.60;;;;;;;;;;4420907;32;20546;-67
2021/05/20 11:57:47;;;;;;;8.43;5.43;;;;;;;;;;4422497;32;20572;-67
2021/05/20 12:00:13;;;;;;;7.50;5.43;;;;;;;;;;4421492;32;20130;-67
2021/05/20 12:02:39;;;;;;;7.47;5.15;;;;;;;;;;4421536;32;20430;-73
2021/05/20 12:05:06;;;;;;;7.80;5.05;;;;;;;;;;4438199;32;20557;-73
2021/05/20 12:07:32;;;;;;;7.45;5.03;;;;;;;;;;4435903;32;20222;-71
2021/05/20 12:10:09;;;;;;;8.35;5.40;;;;;;;;;;4436415;32;20169;-70
2021/05/20 12:12:34;;;;;;;7.70;5.57;;;;;;;;;;4437932;32;20199;-70
2021/05/20 12:15:08;;;;;;;7.82;5.18;;;;;;;;;;4435611;32;20137;-69
2021/05/20 12:17:33;;;;;;;9.15;5.32;;;;;;;;;;4421792;32;20165;-70
2021/05/20 12:19:59;;;;;;;7.12;4.75;;;;;;;;;;4435064;32;20214;-70
2021/05/20 12:22:29;;;;;;;4.10;3.70;;;;;;;;;;4436002;32;20514;-70
2021/05/20 12:24:58;;;;;;;7.75;4.25;;;;;;;;;;4437408;32;20198;-70
2021/05/20 12:27:25;;;;;;;6.70;4.30;;;;;;;;;;4422699;32;20232;-70
2021/05/20 12:29:51;;;;;;;4.60;4.20;;;;;;;;;;4435425;32;20176;-70
2021/05/20 12:32:26;;;;;;;7.28;4.43;;;;;;;;;;4436186;32;20218;-70
2021/05/20 12:35:10;;;;;;;4.45;3.87;;;;;;;;;;4421628;32;20225;-70
2021/05/20 12:37:39;;;;;;;5.25;3.70;;;;;;;;;;4423473;32;20196;-69
2021/05/20 12:40:08;;;;;;;4.32;3.87;;;;;;;;;;4434868;32;20145;-69
2021/05/20 12:42:33;;;;;;;8.07;5.20;;;;;;;;;;4436927;32;20167;-69
2021/05/20 12:44:59;;;;;;;4.45;4.05;;;;;;;;;;4430154;32;20149;-68
2021/05/20 12:47:24;;;;;;;4.47;4.07;;;;;;;;;;4420586;32;20236;-70
2021/05/20 12:49:56;;;;;;;5.95;4.25;;;;;;;;;;4421155;32;20191;-70
2021/05/20 12:52:22;;;;;;;5.03;4.37;;;;;;;;;;4421784;32;20245;-69
2021/05/20 12:54:47;;;;;;;5.47;4.37;;;;;;;;;;4423092;32;20242;-70
2021/05/20 12:57:12;;;;;;;8.18;4.80;;;;;;;;;;4421804;32;20196;-70
2021/05/20 12:59:39;;;;;;;6.12;4.72;;;;;;;;;;4422199;32;20210;-69
2021/05/20 13:02:11;;;;;;;15.88;11.82;;;;;;;;;;4419663;32;20291;-70
2021/05/20 13:04:38;;;;;;;4.87;3.85;;;;;;;;;;4406568;32;20188;-70
2021/05/20 13:07:11;;;;;;;4.53;4.12;;;;;;;;;;4406460;32;20552;-70
2021/05/20 13:09:37;;;;;;;7.18;4.30;;;;;;;;;;4420247;32;20562;-70
2021/05/20 13:12:09;;;;;;;4.90;4.20;;;;;;;;;;4406478;32;20208;-70
2021/05/20 13:14:43;;;;;;;6.32;4.57;;;;;;;;;;4420274;32;20534;-70
2021/05/20 13:17:19;;;;;;;5.55;4.80;;;;;;;;;;4420407;32;20193;-70
2021/05/20 13:20:13;;;;;;;8.45;4.10;;;;;;;;;;4421284;32;20500;-70
2021/05/20 13:22:38;;;;;;;6.87;3.50;;;;;;;;;;4421648;32;20161;-70
2021/05/20 13:25:07;;;;;;;5.90;4.22;;;;;;;;;;4430566;32;20207;-70
2021/05/20 13:27:33;;;;;;;5.60;3.90;;;;;;;;;;4436957;32;20206;-70
2021/05/20 13:30:02;;;;;;;5.25;3.60;;;;;;;;;;4433205;32;20158;-69
2021/05/20 13:35:09;;;;;;;6.78;3.58;;;;;;;;;;4420449;32;20200;-69
2021/05/20 13:37:34;;;;;;;7.25;3.08;;;;;;;;;;4418959;32;20164;-70
2021/05/20 13:40:03;;;;;;;4.85;2.75;;;;;;;;;;4420813;32;20535;-71
2021/05/20 13:42:28;;;;;;;4.78;2.87;;;;;;;;;;4420225;32;20234;-70
2021/05/20 13:44:55;;;;;;;4.55;2.95;;;;;;;;;;4418961;32;20134;-70
2021/05/20 13:47:20;;;;;;;5.43;3.28;;;;;;;;;;4420924;32;20157;-71
2021/05/20 13:49:46;;;;;;;5.37;3.70;;;;;;;;;;4419993;32;20558;-71
2021/05/20 13:52:18;;;;;;;6.57;3.62;;;;;;;;;;4420250;32;20212;-69
2021/05/20 13:54:47;;;;;;;7.93;3.62;;;;;;;;;;4419745;32;20126;-69
2021/05/20 13:57:13;;;;;;;5.90;3.35;;;;;;;;;;4405481;32;20209;-70
2021/05/20 13:59:45;;;;;;;4.50;3.00;;;;;;;;;;4435116;32;20554;-70
2021/05/20 14:02:16;;;;;;;4.62;3.17;;;;;;;;;;4433616;32;20157;-69
2021/05/20 14:04:42;;;;;;;4.85;2.20;;;;;;;;;;4423566;32;20270;-68
2021/05/20 14:07:11;;;;;;;4.55;2.47;;;;;;;;;;4418127;32;20520;-67
2021/05/20 14:09:37;;;;;;;5.80;2.60;;;;;;;;;;4417352;32;20188;-69
2021/05/20 14:12:03;;;;;;;2.45;1.95;;;;;;;;;;4419476;32;20150;-69
2021/05/20 14:14:29;;;;;;;4.45;2.20;;;;;;;;;;4418613;32;20202;-69
2021/05/20 14:16:54;;;;;;;2.83;2.20;;;;;;;;;;4419969;32;20141;-69
2021/05/20 14:19:19;;;;;;;4.55;2.40;;;;;;;;;;4406076;32;20158;-69
2021/05/20 14:21:45;;;;;;;3.08;1.80;;;;;;;;;;4406370;32;20246;-69
2021/05/20 14:24:10;;;;;;;3.45;2.12;;;;;;;;;;4420254;32;20301;-68
2021/05/20 14:26:36;;;;;;;3.55;1.98;;;;;;;;;;4419929;32;20530;-67
2021/05/20 14:29:01;;;;;;;3.42;2.30;;;;;;;;;;4404375;32;20189;-67